createdAt,value
2022-12-14T00:00:42.128Z,-1.58
2022-12-14T00:03:11.567Z,-1.58
2022-12-14T00:05:41.121Z,-1.59
2022-12-14T00:08:10.683Z,-1.61
2022-12-14T00:10:40.356Z,-1.60
2022-12-14T00:13:10.776Z,-1.61
2022-12-14T00:15:40.280Z,-1.63
2022-12-14T00:18:09.632Z,-1.63
2022-12-14T00:20:39.356Z,-1.63
2022-12-14T00:23:11.396Z,-1.65
2022-12-14T00:25:42.219Z,-1.65
2022-12-14T00:28:12.066Z,-1.64
2022-12-14T00:30:41.052Z,-1.65
2022-12-14T00:33:10.144Z,-1.68
2022-12-14T00:35:38.839Z,-1.68
2022-12-14T00:38:08.524Z,-1.65
2022-12-14T00:40:38.232Z,-1.65
2022-12-14T00:43:07.347Z,-1.63
2022-12-14T00:45:36.196Z,-1.64
2022-12-14T00:48:06.629Z,-1.65
2022-12-14T00:50:36.468Z,-1.66
2022-12-14T00:53:05.765Z,-1.66
2022-12-14T00:55:39.490Z,-1.70
2022-12-14T00:58:09.008Z,-1.70
2022-12-14T01:00:39.629Z,-1.70
2022-12-14T01:03:08.846Z,-1.66
2022-12-14T01:05:39.174Z,-1.67
2022-12-14T01:08:08.835Z,-1.68
2022-12-14T01:10:40.396Z,-1.70
2022-12-14T01:13:10.967Z,-1.66
2022-12-14T01:15:42.860Z,-1.65
2022-12-14T01:18:12.960Z,-1.64
2022-12-14T01:20:42.195Z,-1.62
2022-12-14T01:23:12.226Z,-1.61
2022-12-14T01:25:41.117Z,-1.59
2022-12-14T01:28:10.663Z,-1.56
2022-12-14T01:30:40.183Z,-1.53
2022-12-14T01:33:09.939Z,-1.54
2022-12-14T01:35:39.038Z,-1.56
2022-12-14T01:38:08.407Z,-1.64
2022-12-14T01:40:37.849Z,-1.65
2022-12-14T01:43:13.774Z,-1.68
2022-12-14T01:45:43.329Z,-1.70
2022-12-14T01:48:13.029Z,-1.74
2022-12-14T01:50:44.280Z,-1.78
2022-12-14T01:53:20.477Z,-1.88
2022-12-14T01:55:53.273Z,-1.98
2022-12-14T01:58:25.305Z,-2.07
2022-12-14T02:00:56.169Z,-2.14
2022-12-14T02:03:30.012Z,-2.19
2022-12-14T02:06:14.138Z,-2.22
2022-12-14T02:08:43.478Z,-2.24
2022-12-14T02:11:13.328Z,-2.25
2022-12-14T02:13:42.268Z,-2.24
2022-12-14T02:16:11.033Z,-2.22
2022-12-14T02:18:41.496Z,-2.17
2022-12-14T02:21:44.138Z,-2.12
2022-12-14T02:24:56.212Z,-2.13
2022-12-14T02:28:10.209Z,-2.14
2022-12-14T02:30:40.940Z,-2.11
2022-12-14T02:33:30.785Z,-2.11
2022-12-14T02:36:23.168Z,-2.11
2022-12-14T02:39:18.658Z,-2.06
2022-12-14T02:42:04.900Z,-2.03
2022-12-14T02:44:55.522Z,-2.06
2022-12-14T02:47:36.408Z,-2.10
2022-12-14T02:50:29.525Z,-2.14
2022-12-14T02:53:23.880Z,-2.15
2022-12-14T02:55:59.462Z,-2.14
2022-12-14T02:58:41.769Z,-2.15
2022-12-14T03:01:14.150Z,-2.16
2022-12-14T03:03:43.590Z,-2.17
2022-12-14T03:06:21.028Z,-2.17
2022-12-14T03:08:50.443Z,-2.21
2022-12-14T03:11:23.295Z,-2.25
2022-12-14T03:13:59.637Z,-2.27
2022-12-14T03:16:33.800Z,-2.27
2022-12-14T03:19:20.263Z,-2.28
2022-12-14T03:21:54.310Z,-2.25
2022-12-14T03:24:34.750Z,-2.22
2022-12-14T03:27:10.965Z,-2.19
2022-12-14T03:29:50.058Z,-2.19
2022-12-14T03:32:22.492Z,-2.17
2022-12-14T03:35:01.970Z,-2.17
2022-12-14T03:38:12.700Z,-2.18
2022-12-14T03:41:17.799Z,-2.18
2022-12-14T03:44:01.270Z,-2.14
2022-12-14T03:47:13.196Z,-2.12
2022-12-14T03:50:00.047Z,-2.10
2022-12-14T03:52:44.883Z,-2.12
2022-12-14T03:55:31.018Z,-2.17
2022-12-14T03:58:23.594Z,-2.21
2022-12-14T04:01:19.274Z,-2.26
2022-12-14T04:04:18.055Z,-2.27
2022-12-14T04:07:07.383Z,-2.31
2022-12-14T04:10:01.378Z,-2.36
2022-12-14T04:12:57.723Z,-2.38
2022-12-14T04:15:53.007Z,-2.41
2022-12-14T04:18:44.996Z,-2.41
2022-12-14T04:21:42.162Z,-2.41
2022-12-14T04:24:47.034Z,-2.44
2022-12-14T04:27:24.508Z,-2.44
2022-12-14T04:29:56.604Z,-2.45
2022-12-14T04:32:52.773Z,-2.49
2022-12-14T04:35:40.798Z,-2.50
2022-12-14T04:38:20.262Z,-2.54
2022-12-14T04:40:52.955Z,-2.61
2022-12-14T04:43:26.323Z,-2.65
2022-12-14T04:45:59.247Z,-2.62
2022-12-14T04:48:39.264Z,-2.65
2022-12-14T04:51:49.261Z,-2.71
2022-12-14T04:54:55.634Z,-2.72
2022-12-14T04:57:46.280Z,-2.73
2022-12-14T05:00:16.795Z,-2.79
2022-12-14T05:03:15.818Z,-2.81
2022-12-14T05:06:15.054Z,-2.80
2022-12-14T05:09:04.357Z,-2.82
2022-12-14T05:12:12.250Z,-2.82
2022-12-14T05:14:49.428Z,-2.83
2022-12-14T05:17:18.587Z,-2.88
2022-12-14T05:19:48.932Z,-2.91
2022-12-14T05:22:18.576Z,-2.93
2022-12-14T05:24:47.458Z,-2.97
2022-12-14T05:27:16.574Z,-2.99
2022-12-14T05:29:45.345Z,-3.00
2022-12-14T05:32:14.249Z,-3.00
2022-12-14T05:34:45.187Z,-3.05
2022-12-14T05:37:18.167Z,-3.05
2022-12-14T05:39:44.579Z,-3.04
2022-12-14T05:42:13.689Z,-3.02
2022-12-14T05:44:42.927Z,-3.03
2022-12-14T05:47:11.703Z,-3.05
2022-12-14T05:49:40.355Z,-3.08
2022-12-14T05:52:09.086Z,-3.08
2022-12-14T05:54:38.183Z,-3.08
2022-12-14T05:57:07.116Z,-3.08
2022-12-14T05:59:36.375Z,-3.08
2022-12-14T06:02:06.319Z,-3.08
2022-12-14T06:04:36.093Z,-3.08
2022-12-14T06:07:05.918Z,-3.08
2022-12-14T06:09:35.321Z,-3.09
2022-12-14T06:12:05.094Z,-3.10
2022-12-14T06:14:33.683Z,-3.08
2022-12-14T06:17:02.531Z,-3.04
2022-12-14T06:19:31.389Z,-3.00
2022-12-14T06:22:01.129Z,-2.96
2022-12-14T06:24:30.284Z,-2.95
2022-12-14T06:26:59.599Z,-2.92
2022-12-14T06:29:29.285Z,-2.93
2022-12-14T06:31:58.465Z,-2.90
2022-12-14T06:34:28.744Z,-2.89
2022-12-14T06:36:58.554Z,-2.91
2022-12-14T06:39:28.652Z,-2.90
2022-12-14T06:41:59.235Z,-2.90
2022-12-14T06:44:30.811Z,-2.89
2022-12-14T06:47:00.578Z,-2.83
2022-12-14T06:49:29.979Z,-2.84
2022-12-14T06:51:59.064Z,-2.80
2022-12-14T06:54:30.467Z,-2.79
2022-12-14T06:56:59.212Z,-2.79
2022-12-14T06:59:28.329Z,-2.80
2022-12-14T07:01:57.157Z,-2.80
2022-12-14T07:04:28.969Z,-2.80
2022-12-14T07:06:58.661Z,-2.76
2022-12-14T07:09:27.658Z,-2.71
2022-12-14T07:11:56.857Z,-2.66
2022-12-14T07:14:26.227Z,-2.63
2022-12-14T07:16:55.742Z,-2.62
2022-12-14T07:19:24.757Z,-2.58
2022-12-14T07:21:53.639Z,-2.54
2022-12-14T07:24:23.187Z,-2.53
2022-12-14T07:26:53.499Z,-2.53
2022-12-14T07:29:25.733Z,-2.52
2022-12-14T07:31:56.283Z,-2.52
2022-12-14T07:34:26.529Z,-2.54
2022-12-14T07:36:55.609Z,-2.51
2022-12-14T07:39:25.876Z,-2.48
2022-12-14T07:41:55.022Z,-2.46
2022-12-14T07:44:24.121Z,-2.41
2022-12-14T07:46:55.115Z,-2.39
2022-12-14T07:49:24.672Z,-2.39
2022-12-14T07:51:54.009Z,-2.41
2022-12-14T07:54:23.388Z,-2.39
2022-12-14T10:16:52.280Z,-1.34
2022-12-14T10:19:38.805Z,-1.37
2022-12-14T10:22:16.720Z,-1.32
2022-12-14T10:24:56.216Z,-1.31
2022-12-14T10:27:27.488Z,-1.28
2022-12-14T10:30:06.926Z,-1.25
2022-12-14T10:32:39.978Z,-1.23
2022-12-14T10:35:15.802Z,-1.26
2022-12-14T10:37:53.464Z,-1.26
2022-12-14T10:40:34.537Z,-1.26
2022-12-14T10:43:08.897Z,-1.26
2022-12-14T10:45:47.152Z,-1.29
2022-12-14T10:48:45.682Z,-1.29
2022-12-14T10:51:37.098Z,-1.34
2022-12-14T10:54:41.488Z,-1.37
2022-12-14T10:57:12.395Z,-1.36
2022-12-14T10:59:55.609Z,-1.33
2022-12-14T11:02:22.334Z,-1.32
2022-12-14T11:05:03.500Z,-1.31
2022-12-14T11:07:38.582Z,-1.32
2022-12-14T11:10:28.387Z,-1.33
2022-12-14T11:13:16.835Z,-1.32
2022-12-14T11:15:49.237Z,-1.26
2022-12-14T11:18:30.243Z,-1.25
2022-12-14T11:21:06.001Z,-1.24
2022-12-14T11:23:40.866Z,-1.21
2022-12-14T11:26:17.469Z,-1.21
2022-12-14T11:28:52.378Z,-1.23
2022-12-14T11:31:48.141Z,-1.22
2022-12-14T11:34:45.771Z,-1.23
2022-12-14T11:37:30.828Z,-1.22
2022-12-14T11:40:05.457Z,-1.21
2022-12-14T11:42:45.546Z,-1.18
2022-12-14T11:45:30.557Z,-1.15
2022-12-14T11:48:28.761Z,-1.15
2022-12-14T11:51:22.492Z,-1.11
2022-12-14T11:54:06.059Z,-1.12
2022-12-14T11:56:40.478Z,-1.15
2022-12-14T11:59:14.431Z,-1.15
2022-12-14T12:02:07.616Z,-1.18
2022-12-14T12:04:50.420Z,-1.19
2022-12-14T12:07:36.249Z,-1.23
2022-12-14T12:10:17.994Z,-1.26
2022-12-14T12:13:12.758Z,-1.30
2022-12-14T12:15:58.846Z,-1.29
2022-12-14T12:18:34.788Z,-1.29
2022-12-14T12:21:22.838Z,-1.29
2022-12-14T12:24:26.572Z,-1.27
2022-12-14T12:27:06.169Z,-1.24
2022-12-14T12:30:20.521Z,-1.23
2022-12-14T12:33:01.015Z,-1.20
2022-12-14T12:35:55.985Z,-1.20
2022-12-14T12:38:49.502Z,-1.20
2022-12-14T12:41:33.942Z,-1.20
2022-12-14T12:44:35.490Z,-1.18
2022-12-14T12:47:46.563Z,-1.17
2022-12-14T12:50:23.173Z,-1.16
2022-12-14T12:53:15.199Z,-1.20
2022-12-14T12:55:55.506Z,-1.21
2022-12-14T12:58:36.580Z,-1.20
2022-12-14T13:01:24.948Z,-1.19
2022-12-14T13:04:21.462Z,-1.22
2022-12-14T13:07:13.818Z,-1.22
2022-12-14T13:10:08.062Z,-1.26
2022-12-14T13:12:48.566Z,-1.25
2022-12-14T13:15:42.551Z,-1.24
2022-12-14T13:18:56.600Z,-1.26
2022-12-14T13:21:16.492Z,-1.29
2022-12-14T13:23:45.850Z,-1.31
2022-12-14T13:26:57.653Z,-1.32
2022-12-14T13:29:44.487Z,-1.35
2022-12-14T13:32:44.588Z,-1.34
2022-12-14T13:35:38.614Z,-1.35
2022-12-14T13:38:39.720Z,-1.38
2022-12-14T13:41:44.731Z,-1.45
2022-12-14T13:44:37.441Z,-1.54
2022-12-14T13:47:21.128Z,-1.61
2022-12-14T13:52:42.122Z,-1.75
2022-12-14T13:56:16.968Z,-1.80
2022-12-14T13:58:56.247Z,-1.84
2022-12-14T14:02:00.857Z,-1.90
2022-12-14T14:04:44.187Z,-1.92
2022-12-14T14:07:32.916Z,-1.99
2022-12-14T14:10:13.559Z,-2.03
2022-12-14T14:12:47.973Z,-2.09
2022-12-14T14:16:04.013Z,-2.14
2022-12-14T14:18:20.330Z,-2.16
2022-12-14T14:21:26.994Z,-2.24
2022-12-14T14:24:16.742Z,-2.24
2022-12-14T14:27:18.967Z,-2.28
2022-12-14T14:30:15.735Z,-2.39
2022-12-14T14:32:47.696Z,-2.50
2022-12-14T14:35:30.847Z,-2.58
2022-12-14T14:38:02.703Z,-2.63
2022-12-14T14:41:06.598Z,-2.64
2022-12-14T14:43:20.345Z,-2.66
2022-12-14T14:45:54.489Z,-2.66
2022-12-14T14:48:48.136Z,-2.67
2022-12-14T14:51:29.640Z,-2.69
2022-12-14T14:55:06.526Z,-2.69
2022-12-14T14:57:29.518Z,-2.71
2022-12-14T15:00:22.022Z,-2.67
2022-12-14T15:03:10.096Z,-2.65
2022-12-14T15:06:16.200Z,-2.62
2022-12-14T15:10:02.814Z,-2.63
2022-12-14T15:16:09.548Z,-2.67
2022-12-14T15:18:43.879Z,-2.73
2022-12-14T15:21:19.576Z,-2.78
2022-12-14T15:24:15.449Z,-2.85
2022-12-14T15:26:47.495Z,-2.91
2022-12-14T15:29:26.313Z,-2.95
2022-12-14T15:32:03.331Z,-2.94
2022-12-14T15:34:53.664Z,-2.93
2022-12-14T15:37:59.986Z,-2.95
2022-12-14T15:40:54.427Z,-2.98
2022-12-14T15:44:08.779Z,-2.95
2022-12-14T15:47:01.497Z,-2.94
2022-12-14T15:50:04.310Z,-2.94
2022-12-14T15:52:56.715Z,-2.96
2022-12-14T15:55:36.804Z,-2.93
2022-12-14T15:58:39.151Z,-2.90
2022-12-14T16:01:54.331Z,-2.92
2022-12-14T16:04:49.375Z,-2.97
2022-12-14T19:26:09.456Z,-3.52
2022-12-14T19:28:40.763Z,-3.57
2022-12-14T19:31:13.443Z,-3.60
2022-12-14T19:33:43.139Z,-3.64
2022-12-14T19:36:12.681Z,-3.62
2022-12-14T19:38:42.529Z,-3.59
2022-12-14T19:41:12.119Z,-3.56
2022-12-14T19:43:42.358Z,-3.55
2022-12-14T19:46:13.206Z,-3.51
2022-12-14T19:48:49.562Z,-3.47
2022-12-14T19:51:20.340Z,-3.48
2022-12-14T19:53:49.677Z,-3.48
2022-12-14T19:56:19.522Z,-3.44
2022-12-14T19:58:50.052Z,-3.40
2022-12-14T20:01:19.368Z,-3.37
2022-12-14T20:03:50.308Z,-3.32
2022-12-14T20:06:19.423Z,-3.30
2022-12-14T20:08:49.212Z,-3.30
2022-12-14T20:11:20.388Z,-3.30
2022-12-14T20:13:58.170Z,-3.30
2022-12-14T20:16:25.487Z,-3.29
2022-12-14T20:18:54.409Z,-3.27
2022-12-14T20:21:23.628Z,-3.25
2022-12-14T20:23:52.829Z,-3.27
2022-12-14T20:26:22.623Z,-3.27
2022-12-14T20:28:54.413Z,-3.24
2022-12-14T20:31:26.564Z,-3.21
2022-12-14T20:33:56.026Z,-3.15
2022-12-14T20:36:25.887Z,-3.13
2022-12-14T20:38:58.187Z,-3.10
2022-12-14T20:41:28.062Z,-3.08
2022-12-14T20:43:57.397Z,-3.07
2022-12-14T20:46:38.857Z,-3.06
2022-12-14T20:49:17.021Z,-3.06
2022-12-14T20:51:47.770Z,-3.05
2022-12-14T20:54:22.892Z,-3.05
2022-12-14T20:56:53.814Z,-3.03
2022-12-14T20:59:24.462Z,-3.00
2022-12-14T21:01:56.562Z,-2.98
2022-12-14T21:04:28.094Z,-2.99
2022-12-14T21:06:57.306Z,-2.99
2022-12-14T21:09:26.602Z,-3.01
2022-12-14T21:12:15.196Z,-2.99
2022-12-14T21:14:48.033Z,-2.94
2022-12-14T21:17:21.517Z,-2.93
2022-12-14T21:19:51.492Z,-2.92
2022-12-14T21:22:23.838Z,-2.91
2022-12-14T21:25:03.732Z,-2.90
2022-12-14T21:27:27.928Z,-2.85
2022-12-14T21:29:57.213Z,-2.87
2022-12-14T21:32:27.070Z,-2.87
2022-12-14T21:34:57.470Z,-2.89
2022-12-14T21:37:27.920Z,-2.95
2022-12-14T21:39:57.719Z,-2.94
2022-12-14T21:42:27.959Z,-2.92
2022-12-14T21:44:58.163Z,-2.92
2022-12-14T21:47:29.490Z,-2.90
2022-12-14T21:49:59.725Z,-2.87
2022-12-14T21:52:31.927Z,-2.84
2022-12-14T21:55:03.734Z,-2.82
2022-12-14T21:57:53.425Z,-2.80
2022-12-14T22:00:23.947Z,-2.80
2022-12-14T22:02:54.842Z,-2.82
2022-12-14T22:05:25.515Z,-2.81
2022-12-14T22:07:54.840Z,-2.81
2022-12-14T22:10:25.272Z,-2.81
2022-12-14T22:12:54.956Z,-2.81
2022-12-14T22:15:25.657Z,-2.79
2022-12-14T22:17:55.487Z,-2.77
2022-12-14T22:20:24.798Z,-2.75
2022-12-14T22:22:54.497Z,-2.77
2022-12-14T22:25:24.660Z,-2.76
2022-12-14T22:27:53.884Z,-2.75
2022-12-14T22:30:28.495Z,-2.73
2022-12-14T22:32:56.148Z,-2.71
2022-12-14T22:35:25.848Z,-2.70
2022-12-14T22:37:56.091Z,-2.67
2022-12-14T22:40:26.287Z,-2.64
2022-12-14T22:42:55.783Z,-2.62
2022-12-14T22:45:25.708Z,-2.61
2022-12-14T22:47:55.047Z,-2.59
2022-12-14T22:50:24.537Z,-2.61
2022-12-14T22:52:53.669Z,-2.58
2022-12-14T22:55:24.436Z,-2.56
2022-12-14T22:57:53.763Z,-2.55
2022-12-14T23:00:22.774Z,-2.51
2022-12-14T23:02:52.313Z,-2.48
2022-12-14T23:05:22.454Z,-2.47
2022-12-14T23:07:53.472Z,-2.48
2022-12-14T23:10:43.032Z,-2.44
2022-12-14T23:13:31.872Z,-2.43
2022-12-14T23:16:20.184Z,-2.40
2022-12-14T23:19:08.239Z,-2.35
2022-12-14T23:21:57.749Z,-2.30
2022-12-14T23:24:48.170Z,-2.28
2022-12-14T23:27:36.066Z,-2.26
2022-12-14T23:30:25.631Z,-2.24
2022-12-14T23:33:15.723Z,-2.22
2022-12-14T23:36:04.269Z,-2.21
2022-12-14T23:38:53.254Z,-2.20
2022-12-14T23:41:42.023Z,-2.20
2022-12-14T23:44:30.437Z,-2.17
2022-12-14T23:47:18.376Z,-2.12
2022-12-14T23:50:06.620Z,-2.08
2022-12-14T23:52:59.476Z,-2.05
2022-12-14T23:55:47.009Z,-2.03
